Welcome to Bucharest LROP 191800Z 06011KT CAVOK 08/06 Q1027 R88/19//95 NOSIG

 

Down the Danube 8 - 26.04.2019, 16z - 21z

Spring is usually a time of nature revival: flowers bloom, birds start singing again, people throw away their winter clothes, airplanes... well airplanes request some degrees to the right to avoid CB.

Welcome to ROvACC's spring overload event. This year it will be the the 26th of April, from 16 to 21 ZULU TIME

Come and fly into and out of Bucharest Romania (LROP/OTP) and have fun flying in a high traffic situation. We'll enjoy controlling you and we promise no holdings... as much as practicable, at least :)

This is our yearly realops event, so we gathered a bunch of real flight and stuck them into our booking system. Go to the booking page and choose your favorite flight.

Be sure to check our Pilot Briefing guide, our charts and the sceneries available for Bucharest Henri Coanda International Airport as well as other airports in LRBB FIR.

One moe thing, there's also a CPT taking place at Otopeni Tower so you'll all be helping David validate his checkout.

days
hours
minutes
Arrivals 20 out of 60
34% arrivals booked
Departures 6 out of 60
10% departures booked
BOOK NOW PILOT BRIEFING

Please note!

This website is intended for flight simulation only. Information presented here should not be used in real life flight situations.